Time;durP1;ratioP1;P1;durP2;ratioP2;P2;SDS_P1;SDS_P2;PMS_P1;PMS_P2;Temp;Humidity;BMP_temperature;BMP_pressure;BME280_temperature;BME280_humidity;BME280_pressure;Samples;Min_cycle;Max_cycle;Signal;HPM_P1;HPM_P2
2022/04/26 03:37:46;;;;;;;;;;;24.00;44.30;;;;;;1592690;74;707;-65
2022/04/26 03:39:49;;;;;;;;;;;24.00;44.30;;;;;;1578316;74;748;-66
2022/04/26 03:41:50;;;;;;;;;;;24.00;44.40;;;;;;1585777;74;721;-66
2022/04/26 03:43:52;;;;;;;;;;;24.10;44.50;;;;;;1599286;73;721;-68
2022/04/26 03:45:54;;;;;;;;;;;24.00;44.30;;;;;;1590120;73;1532;-66
2022/04/26 03:47:56;;;;;;;;;;;24.00;44.30;;;;;;1590468;73;1941;-66
2022/04/26 03:49:58;;;;;;;;;;;24.00;44.30;;;;;;1590535;74;631;-69
2022/04/26 03:52:00;;;;;;;;;;;24.00;44.30;;;;;;1590489;74;756;-66
2022/04/26 03:54:02;;;;;;;;;;;24.00;44.30;;;;;;1596079;73;705;-67
2022/04/26 03:56:04;;;;;;;;;;;24.10;44.40;;;;;;1595865;73;1173;-66
2022/04/26 03:58:06;;;;;;;;;;;24.00;44.20;;;;;;1600361;74;778;-66
2022/04/26 04:00:08;;;;;;;;;;;24.00;44.30;;;;;;1607173;73;1638;-66
2022/04/26 04:02:10;;;;;;;;;;;24.10;44.40;;;;;;1598289;73;653;-66
2022/04/26 04:04:12;;;;;;;;;;;24.00;44.20;;;;;;1609470;73;719;-66
2022/04/26 04:06:14;;;;;;;;;;;24.10;44.40;;;;;;1600328;73;1137;-66
2022/04/26 04:08:16;;;;;;;;;;;24.00;44.30;;;;;;1600280;74;1925;-66
2022/04/26 04:10:18;;;;;;;;;;;24.00;44.20;;;;;;1591095;74;739;-67
2022/04/26 04:12:20;;;;;;;;;;;24.00;44.20;;;;;;1575781;73;686;-67
2022/04/26 04:14:21;;;;;;;;;;;24.00;44.20;;;;;;1610365;73;1466;-66
2022/04/26 04:16:23;;;;;;;;;;;24.00;44.30;;;;;;1603897;73;1152;-67
2022/04/26 04:20:45;;;;;;;;;;;24.00;44.30;;;;;;1600394;74;756;-66
2022/04/26 04:22:53;;;;;;;;;;;24.00;44.20;;;;;;1597596;73;735;-64
2022/04/26 04:24:51;;;;;;;;;;;24.00;44.30;;;;;;1587482;74;1580;-68
2022/04/26 04:26:53;;;;;;;;;;;24.00;44.40;;;;;;1599272;73;1121;-69
2022/04/26 04:28:54;;;;;;;;;;;24.00;44.50;;;;;;1590544;74;1926;-67
2022/04/26 04:30:56;;;;;;;;;;;24.00;44.40;;;;;;1586096;73;707;-66
2022/04/26 04:32:58;;;;;;;;;;;24.00;44.40;;;;;;1595074;74;769;-68
2022/04/26 04:35:00;;;;;;;;;;;24.00;44.50;;;;;;1590666;73;693;-66
2022/04/26 04:37:02;;;;;;;;;;;24.00;44.40;;;;;;1619340;73;1137;-67
2022/04/26 04:39:04;;;;;;;;;;;24.00;44.40;;;;;;1602796;73;723;-67
2022/04/26 04:41:06;;;;;;;;;;;24.00;44.40;;;;;;1600361;74;723;-69
2022/04/26 04:43:08;;;;;;;;;;;24.00;44.40;;;;;;1584680;73;1545;-67
2022/04/26 04:45:10;;;;;;;;;;;24.00;44.40;;;;;;1576994;74;656;-66
2022/04/26 04:47:12;;;;;;;;;;;24.00;44.50;;;;;;1592391;73;1945;-67
2022/04/26 04:49:14;;;;;;;;;;;24.00;44.60;;;;;;1590916;74;738;-66
2022/04/26 04:51:16;;;;;;;;;;;24.00;44.50;;;;;;1590274;74;734;-66
2022/04/26 04:53:19;;;;;;;;;;;24.00;44.70;;;;;;1596551;73;709;-66
2022/04/26 04:55:21;;;;;;;;;;;24.10;44.80;;;;;;1596276;73;1326;-67
2022/04/26 04:57:25;;;;;;;;;;;24.00;44.70;;;;;;1597034;74;1163;-67
2022/04/26 04:59:28;;;;;;;;;;;24.10;44.90;;;;;;1590376;73;700;-66
2022/04/26 05:01:30;;;;;;;;;;;24.10;44.90;;;;;;1590947;74;760;-66
2022/04/26 05:03:32;;;;;;;;;;;24.10;45.00;;;;;;1598901;73;704;-67
2022/04/26 05:05:34;;;;;;;;;;;24.00;44.90;;;;;;1600222;74;712;-68
2022/04/26 05:07:37;;;;;;;;;;;24.00;44.80;;;;;;1586883;73;1957;-62
2022/04/26 05:09:41;;;;;;;;;;;24.10;45.10;;;;;;1587485;74;1567;-62
2022/04/26 05:11:42;;;;;;;;;;;24.10;44.70;;;;;;1587908;73;1713;-63
2022/04/26 05:13:44;;;;;;;;;;;24.10;44.40;;;;;;1603073;73;774;-63
2022/04/26 05:15:46;;;;;;;;;;;24.10;44.30;;;;;;1626547;73;1262;-61
2022/04/26 05:17:48;;;;;;;;;;;24.10;44.20;;;;;;1626557;73;713;-61
2022/04/26 05:19:50;;;;;;;;;;;24.10;44.10;;;;;;1615506;73;743;-62
2022/04/26 05:21:52;;;;;;;;;;;24.20;43.90;;;;;;1595375;73;714;-61
2022/04/26 05:26:13;;;;;;;;;;;24.10;43.80;;;;;;1595499;73;1138;-64
2022/04/26 05:28:15;;;;;;;;;;;24.10;43.80;;;;;;1600343;74;1932;-62
2022/04/26 05:30:17;;;;;;;;;;;24.20;43.70;;;;;;1600263;74;704;-61
2022/04/26 05:32:22;;;;;;;;;;;24.10;43.70;;;;;;1598906;74;729;-61
2022/04/26 05:34:24;;;;;;;;;;;24.10;43.70;;;;;;1598195;73;738;-61
2022/04/26 05:36:25;;;;;;;;;;;24.10;43.70;;;;;;1600270;73;1129;-63
2022/04/26 05:38:27;;;;;;;;;;;24.10;43.90;;;;;;1588082;74;1310;-62
2022/04/26 05:40:29;;;;;;;;;;;24.20;44.20;;;;;;1599254;73;550;-62
2022/04/26 05:42:31;;;;;;;;;;;24.20;44.20;;;;;;1574797;74;705;-61
2022/04/26 05:44:38;;;;;;;;;;;24.10;44.20;;;;;;1572888;75;708;-62
2022/04/26 05:46:37;;;;;;;;;;;24.20;44.10;;;;;;1590311;73;1613;-62
2022/04/26 05:48:40;;;;;;;;;;;24.20;44.00;;;;;;1594410;74;1939;-62
2022/04/26 05:50:42;;;;;;;;;;;24.20;43.90;;;;;;1596821;73;717;-61
2022/04/26 05:52:44;;;;;;;;;;;24.30;43.70;;;;;;1608803;73;1700;-61
2022/04/26 05:54:46;;;;;;;;;;;24.30;43.50;;;;;;1572834;73;733;-63
2022/04/26 05:56:48;;;;;;;;;;;24.40;43.40;;;;;;1599208;73;1165;-63
2022/04/26 05:58:50;;;;;;;;;;;24.50;43.30;;;;;;1600344;74;590;-61
2022/04/26 06:00:52;;;;;;;;;;;24.40;43.10;;;;;;1600467;74;715;-61
2022/04/26 06:02:54;;;;;;;;;;;24.40;43.20;;;;;;1600310;74;696;-62
2022/04/26 06:04:55;;;;;;;;;;;24.30;43.20;;;;;;1599185;73;691;-61
2022/04/26 06:06:57;;;;;;;;;;;24.40;43.30;;;;;;1605294;71;1682;-61
2022/04/26 06:08:59;;;;;;;;;;;24.30;43.30;;;;;;1576613;74;1945;-62
2022/04/26 06:11:01;;;;;;;;;;;24.30;43.30;;;;;;1572963;75;705;-62
2022/04/26 06:13:03;;;;;;;;;;;24.20;43.20;;;;;;1581858;73;716;-61
2022/04/26 06:15:05;;;;;;;;;;;24.20;42.90;;;;;;1600299;74;715;-61
2022/04/26 06:17:07;;;;;;;;;;;24.20;42.80;;;;;;1599963;73;1141;-62
2022/04/26 06:19:10;;;;;;;;;;;24.30;42.80;;;;;;1599797;73;739;-62
2022/04/26 06:21:11;;;;;;;;;;;24.30;42.80;;;;;;1592015;73;1306;-61
2022/04/26 06:23:13;;;;;;;;;;;24.20;42.80;;;;;;1582521;74;654;-69
2022/04/26 06:25:15;;;;;;;;;;;24.30;42.80;;;;;;1599206;73;605;-68
2022/04/26 06:27:18;;;;;;;;;;;24.40;42.60;;;;;;1600384;73;1221;-68
2022/04/26 06:29:19;;;;;;;;;;;24.50;42.20;;;;;;1600411;74;1914;-68
2022/04/26 06:31:21;;;;;;;;;;;24.70;41.90;;;;;;1597372;74;802;-68
2022/04/26 06:33:23;;;;;;;;;;;24.80;41.50;;;;;;1599260;73;748;-68
2022/04/26 06:35:25;;;;;;;;;;;24.80;41.20;;;;;;1587038;74;1490;-68
2022/04/26 06:37:27;;;;;;;;;;;24.80;40.90;;;;;;1586402;73;1125;-68
2022/04/26 06:39:29;;;;;;;;;;;24.80;40.50;;;;;;1586547;74;729;-72
2022/04/26 06:41:31;;;;;;;;;;;24.70;40.50;;;;;;1576663;73;723;-69
2022/04/26 06:43:34;;;;;;;;;;;24.70;41.10;;;;;;1598701;73;768;-67
2022/04/26 06:45:35;;;;;;;;;;;24.70;40.90;;;;;;1599157;73;701;-67
2022/04/26 06:47:37;;;;;;;;;;;24.80;40.60;;;;;;1597379;74;1080;-67
2022/04/26 06:49:39;;;;;;;;;;;24.80;40.50;;;;;;1597944;73;1930;-69
2022/04/26 06:51:43;;;;;;;;;;;24.80;40.30;;;;;;1586918;74;721;-68
2022/04/26 06:53:45;;;;;;;;;;;24.80;40.20;;;;;;1600230;74;815;-68
2022/04/26 06:55:46;;;;;;;;;;;24.80;40.00;;;;;;1598259;73;1205;-69
2022/04/26 06:57:48;;;;;;;;;;;24.80;40.00;;;;;;1595613;74;715;-68
2022/04/26 06:59:50;;;;;;;;;;;24.80;39.90;;;;;;1600106;74;699;-67
2022/04/26 07:01:55;;;;;;;;;;;24.90;39.80;;;;;;1597193;74;709;-67
2022/04/26 07:03:57;;;;;;;;;;;24.90;39.80;;;;;;1574984;73;700;-68
2022/04/26 07:05:59;;;;;;;;;;;25.00;39.60;;;;;;1619299;71;1109;-69
2022/04/26 07:08:01;;;;;;;;;;;24.90;39.40;;;;;;1607140;73;1930;-67
2022/04/26 07:10:03;;;;;;;;;;;24.90;39.50;;;;;;1602028;73;695;-66
2022/04/26 07:12:07;;;;;;;;;;;24.90;39.40;;;;;;1597056;74;738;-69
2022/04/26 07:14:10;;;;;;;;;;;24.90;39.10;;;;;;1590719;73;700;-68
2022/04/26 07:16:12;;;;;;;;;;;24.90;38.90;;;;;;1590904;73;1652;-70
2022/04/26 07:18:14;;;;;;;;;;;24.80;38.60;;;;;;1580935;74;712;-70
2022/04/26 07:20:16;;;;;;;;;;;24.80;38.70;;;;;;1592579;73;711;-67
2022/04/26 07:22:18;;;;;;;;;;;24.80;38.40;;;;;;1599869;73;721;-67
2022/04/26 07:24:20;;;;;;;;;;;24.80;38.40;;;;;;1600117;73;760;-68
2022/04/26 07:26:21;;;;;;;;;;;24.80;38.40;;;;;;1594932;73;1160;-67
2022/04/26 07:28:23;;;;;;;;;;;24.80;38.40;;;;;;1596039;74;1918;-68
2022/04/26 07:30:34;;;;;;;;;;;24.80;38.40;;;;;;1595227;74;1476;-69
2022/04/26 07:34:48;;;;;;;;;;;24.70;38.30;;;;;;1597586;73;643;-67
2022/04/26 07:36:52;;;;;;;;;;;24.70;38.40;;;;;;1592035;73;228909;-61
2022/04/26 07:38:53;;;;;;;;;;;24.70;38.30;;;;;;1596836;73;737;-61
2022/04/26 07:40:55;;;;;;;;;;;24.70;38.20;;;;;;1605970;73;594;-61
2022/04/26 07:42:57;;;;;;;;;;;24.70;38.20;;;;;;1601837;73;709;-62
2022/04/26 07:44:59;;;;;;;;;;;24.60;38.10;;;;;;1603134;71;1475;-61
2022/04/26 07:47:02;;;;;;;;;;;24.50;38.10;;;;;;1582654;71;1196;-61
2022/04/26 07:49:04;;;;;;;;;;;24.50;38.20;;;;;;1572869;73;1910;-62
2022/04/26 07:51:07;;;;;;;;;;;24.50;38.30;;;;;;1582557;74;706;-61
2022/04/26 07:53:09;;;;;;;;;;;24.40;38.20;;;;;;1580743;74;707;-62
2022/04/26 07:55:11;;;;;;;;;;;24.40;38.20;;;;;;1583985;73;708;-61
2022/04/26 07:57:13;;;;;;;;;;;24.50;38.40;;;;;;1589076;74;1165;-61
2022/04/26 07:59:15;;;;;;;;;;;24.40;38.20;;;;;;1580702;74;1528;-61
2022/04/26 08:01:16;;;;;;;;;;;24.50;38.30;;;;;;1571102;73;699;-61
2022/04/26 08:03:20;;;;;;;;;;;24.40;38.10;;;;;;1575356;74;731;-62
2022/04/26 08:05:22;;;;;;;;;;;24.40;38.10;;;;;;1590331;74;717;-62
2022/04/26 08:07:24;;;;;;;;;;;24.30;38.10;;;;;;1577073;74;1133;-61
2022/04/26 08:09:26;;;;;;;;;;;24.30;38.20;;;;;;1579506;73;1930;-61
2022/04/26 08:11:28;;;;;;;;;;;24.40;38.20;;;;;;1577416;74;713;-61
2022/04/26 08:13:30;;;;;;;;;;;24.30;38.30;;;;;;1576456;74;1485;-61
2022/04/26 08:15:32;;;;;;;;;;;24.30;38.20;;;;;;1571769;74;717;-61
2022/04/26 08:17:34;;;;;;;;;;;24.30;38.30;;;;;;1564656;74;1137;-62
2022/04/26 08:19:36;;;;;;;;;;;24.20;38.20;;;;;;1563599;75;707;-61
2022/04/26 08:21:39;;;;;;;;;;;24.30;38.40;;;;;;1563569;75;704;-61
2022/04/26 08:28:21;;;;;;;;;;;24.20;38.40;;;;;;1583209;75;690;-62
2022/04/26 08:30:23;;;;;;;;;;;24.20;38.40;;;;;;1583351;74;716;-59
2022/04/26 08:32:26;;;;;;;;;;;24.20;38.40;;;;;;1582939;74;707;-61
2022/04/26 08:34:28;;;;;;;;;;;24.10;38.40;;;;;;1584892;74;723;-63
2022/04/26 08:36:31;;;;;;;;;;;24.10;38.40;;;;;;1587633;74;1115;-61
2022/04/26 08:38:33;;;;;;;;;;;24.10;38.40;;;;;;1585047;74;760;-62
2022/04/26 08:40:35;;;;;;;;;;;24.00;38.20;;;;;;1582401;74;1482;-60
2022/04/26 08:42:41;;;;;;;;;;;24.00;38.20;;;;;;1596202;73;709;-61
2022/04/26 08:44:43;;;;;;;;;;;24.10;38.40;;;;;;1564968;74;720;-61
2022/04/26 08:51:24;;;;;;;;;;;24.00;38.30;;;;;;1563562;76;642;-62
2022/04/26 08:53:27;;;;;;;;;;;24.00;38.20;;;;;;1568846;74;611;-61
2022/04/26 08:55:31;;;;;;;;;;;24.00;38.20;;;;;;1577425;74;1615;-61
2022/04/26 08:57:33;;;;;;;;;;;24.00;38.30;;;;;;1597000;73;1321;-62
2022/04/26 08:59:38;;;;;;;;;;;23.90;38.30;;;;;;1563634;76;787;-61
2022/04/26 09:01:38;;;;;;;;;;;24.00;38.30;;;;;;1563455;76;1637;-61
2022/04/26 09:03:41;;;;;;;;;;;24.00;38.20;;;;;;1573271;74;720;-59
2022/04/26 09:05:46;;;;;;;;;;;23.90;38.20;;;;;;1587521;74;718;-62
2022/04/26 09:07:47;;;;;;;;;;;23.90;38.20;;;;;;1586685;74;1167;-61
2022/04/26 09:09:49;;;;;;;;;;;24.00;38.20;;;;;;1571154;74;1917;-62
2022/04/26 09:11:54;;;;;;;;;;;23.90;38.20;;;;;;1581615;74;574;-61
2022/04/26 09:13:55;;;;;;;;;;;23.90;38.10;;;;;;1539085;76;1645;-61
2022/04/26 09:15:57;;;;;;;;;;;23.90;38.10;;;;;;1563513;75;792;-60
2022/04/26 09:18:02;;;;;;;;;;;24.00;38.00;;;;;;1577567;73;1106;-60
2022/04/26 09:20:05;;;;;;;;;;;23.90;37.90;;;;;;1562935;74;1422;-61
2022/04/26 09:22:09;;;;;;;;;;;24.00;37.80;;;;;;1585005;74;793;-60
2022/04/26 09:24:12;;;;;;;;;;;23.90;37.80;;;;;;1571883;74;1486;-60
2022/04/26 09:26:15;;;;;;;;;;;23.90;37.60;;;;;;1587189;74;1148;-62
2022/04/26 09:28:21;;;;;;;;;;;24.00;37.60;;;;;;1589579;74;653;-60
2022/04/26 09:30:25;;;;;;;;;;;24.00;37.50;;;;;;1589888;74;1945;-61
2022/04/26 09:32:26;;;;;;;;;;;23.90;37.30;;;;;;1580552;74;1098;-61
2022/04/26 09:34:31;;;;;;;;;;;23.90;37.30;;;;;;1580781;74;801;-61
2022/04/26 09:36:35;;;;;;;;;;;23.90;37.30;;;;;;1606772;72;1116;-61
2022/04/26 09:38:37;;;;;;;;;;;24.00;37.10;;;;;;1605594;73;777;-61
2022/04/26 09:40:39;;;;;;;;;;;24.00;37.10;;;;;;1563837;72;747;-61
2022/04/26 09:42:41;;;;;;;;;;;23.90;36.90;;;;;;1565039;74;774;-61
2022/04/26 09:44:43;;;;;;;;;;;23.90;36.80;;;;;;1563512;76;780;-61
2022/04/26 09:46:46;;;;;;;;;;;23.90;36.70;;;;;;1582854;74;1120;-61
2022/04/26 09:48:48;;;;;;;;;;;23.90;36.70;;;;;;1577453;74;753;-62
2022/04/26 09:50:50;;;;;;;;;;;23.90;36.60;;;;;;1586868;74;1502;-60
2022/04/26 09:52:55;;;;;;;;;;;23.90;36.60;;;;;;1588151;73;742;-60
2022/04/26 09:54:56;;;;;;;;;;;23.90;36.50;;;;;;1575569;74;1228;-58
2022/04/26 09:56:58;;;;;;;;;;;23.80;36.50;;;;;;1588299;74;1166;-61
2022/04/26 09:59:01;;;;;;;;;;;23.90;36.40;;;;;;1587444;74;660;-61
2022/04/26 10:01:06;;;;;;;;;;;23.80;36.40;;;;;;1587483;74;742;-62
2022/04/26 10:03:09;;;;;;;;;;;23.80;36.00;;;;;;1587984;74;711;-61
2022/04/26 10:05:11;;;;;;;;;;;23.80;36.10;;;;;;1589758;74;1520;-60
2022/04/26 10:07:13;;;;;;;;;;;23.70;36.00;;;;;;1588559;74;1183;-60
2022/04/26 10:09:15;;;;;;;;;;;23.70;36.10;;;;;;1589345;74;2051;-62
2022/04/26 10:11:17;;;;;;;;;;;23.70;36.10;;;;;;1590406;74;614;-61
2022/04/26 10:15:39;;;;;;;;;;;23.70;36.20;;;;;;1587569;74;655;-60
2022/04/26 10:17:50;;;;;;;;;;;23.70;36.20;;;;;;1588593;74;1138;-62
2022/04/26 10:19:51;;;;;;;;;;;23.70;36.10;;;;;;1577541;74;1423;-63
2022/04/26 10:21:54;;;;;;;;;;;23.60;35.20;;;;;;1587147;73;647;-67
2022/04/26 10:24:01;;;;;;;;;;;23.60;35.00;;;;;;1587436;74;761;-63
2022/04/26 10:26:24;;;;;;;;;;;23.50;35.30;;;;;;1586208;74;1617;-63
2022/04/26 10:28:29;;;;;;;;;;;23.40;35.40;;;;;;1585552;74;773;-63
2022/04/26 10:30:41;;;;;;;;;;;23.50;35.80;;;;;;1585752;73;1909;-63
2022/04/26 10:32:43;;;;;;;;;;;23.40;35.80;;;;;;1571064;74;1046;-64
2022/04/26 10:34:45;;;;;;;;;;;23.50;36.20;;;;;;1588354;74;1522;-63
2022/04/26 10:36:55;;;;;;;;;;;23.40;36.20;;;;;;1588380;73;1118;-63
2022/04/26 10:39:16;;;;;;;;;;;23.50;36.40;;;;;;1574741;74;687;-63
2022/04/26 10:41:15;;;;;;;;;;;23.40;36.40;;;;;;1583782;74;1594;-63
2022/04/26 10:43:17;;;;;;;;;;;23.40;36.50;;;;;;1584524;74;735;-64
2022/04/26 10:45:19;;;;;;;;;;;23.50;36.70;;;;;;1583849;74;707;-63
2022/04/26 10:47:21;;;;;;;;;;;23.50;36.80;;;;;;1588864;73;1528;-64
2022/04/26 10:49:25;;;;;;;;;;;23.40;36.70;;;;;;1572333;73;1913;-64
2022/04/26 10:51:36;;;;;;;;;;;23.50;36.90;;;;;;1584307;74;701;-64
2022/04/26 10:53:45;;;;;;;;;;;23.50;36.90;;;;;;1588972;74;718;-64
2022/04/26 10:55:49;;;;;;;;;;;23.60;36.90;;;;;;1583418;74;1675;-63
2022/04/26 10:57:50;;;;;;;;;;;23.60;37.00;;;;;;1586946;74;1206;-64
2022/04/26 11:00:05;;;;;;;;;;;23.50;37.10;;;;;;1589706;74;631;-63
2022/04/26 11:02:08;;;;;;;;;;;23.50;37.30;;;;;;1588746;74;1663;-64
2022/04/26 11:04:12;;;;;;;;;;;23.50;37.30;;;;;;1588019;73;707;-63
2022/04/26 11:06:15;;;;;;;;;;;23.50;37.40;;;;;;1587738;74;1579;-63
2022/04/26 11:08:17;;;;;;;;;;;23.50;37.50;;;;;;1589202;74;1580;-64
2022/04/26 11:10:20;;;;;;;;;;;23.50;37.50;;;;;;1590384;74;1941;-64
2022/04/26 11:12:23;;;;;;;;;;;23.50;37.50;;;;;;1589035;74;764;-63
2022/04/26 11:14:27;;;;;;;;;;;23.50;37.60;;;;;;1589736;74;677;-64
2022/04/26 11:16:29;;;;;;;;;;;23.50;37.60;;;;;;1589586;74;1501;-64
2022/04/26 11:18:32;;;;;;;;;;;23.50;37.70;;;;;;1587280;74;726;-63
2022/04/26 11:20:36;;;;;;;;;;;23.50;37.70;;;;;;1586828;74;679;-64
2022/04/26 11:22:45;;;;;;;;;;;23.50;37.80;;;;;;1585687;74;734;-65
2022/04/26 11:29:27;;;;;;;;;;;23.50;37.80;;;;;;1586784;74;1916;-64
2022/04/26 11:31:30;;;;;;;;;;;23.50;37.90;;;;;;1589238;73;725;-64
2022/04/26 11:33:33;;;;;;;;;;;23.60;38.00;;;;;;1588176;74;1701;-64
2022/04/26 11:35:35;;;;;;;;;;;23.50;38.00;;;;;;1588457;74;723;-64
2022/04/26 11:37:44;;;;;;;;;;;23.50;38.00;;;;;;1588392;74;1116;-64
2022/04/26 11:39:46;;;;;;;;;;;23.60;38.00;;;;;;1584170;74;712;-63
2022/04/26 11:41:48;;;;;;;;;;;23.50;38.10;;;;;;1589625;74;784;-63
2022/04/26 11:43:49;;;;;;;;;;;23.50;38.00;;;;;;1587011;74;1514;-63
2022/04/26 11:45:52;;;;;;;;;;;23.50;38.10;;;;;;1588212;74;795;-65
2022/04/26 11:47:54;;;;;;;;;;;23.50;38.10;;;;;;1588520;74;1153;-64
2022/04/26 11:49:56;;;;;;;;;;;23.60;38.10;;;;;;1589693;74;1899;-66
2022/04/26 11:52:01;;;;;;;;;;;23.60;38.00;;;;;;1587381;74;905;-66
2022/04/26 11:54:03;;;;;;;;;;;23.60;38.10;;;;;;1588761;74;749;-65
2022/04/26 11:56:05;;;;;;;;;;;23.60;38.10;;;;;;1586923;74;735;-64
2022/04/26 11:58:10;;;;;;;;;;;23.50;38.10;;;;;;1587109;73;1534;-65
2022/04/26 12:00:13;;;;;;;;;;;23.60;38.10;;;;;;1584354;73;749;-66
2022/04/26 12:02:14;;;;;;;;;;;23.50;38.20;;;;;;1579380;73;790;-66
2022/04/26 12:04:16;;;;;;;;;;;23.50;38.20;;;;;;1585765;74;736;-65
2022/04/26 12:06:19;;;;;;;;;;;23.50;38.20;;;;;;1567837;73;1176;-65
2022/04/26 12:08:22;;;;;;;;;;;23.40;38.10;;;;;;1576367;74;712;-66
2022/04/26 12:10:33;;;;;;;;;;;23.40;38.10;;;;;;1575301;74;1934;-66
2022/04/26 12:12:36;;;;;;;;;;;23.50;38.30;;;;;;1577824;74;1434;-64
2022/04/26 12:14:40;;;;;;;;;;;23.40;38.30;;;;;;1574367;74;1594;-65
2022/04/26 12:16:42;;;;;;;;;;;23.40;38.30;;;;;;1577150;74;1121;-66
2022/04/26 12:18:50;;;;;;;;;;;23.40;38.40;;;;;;1587695;74;732;-65
2022/04/26 12:21:02;;;;;;;;;;;23.40;38.40;;;;;;1584221;74;750;-66
2022/04/26 12:23:04;;;;;;;;;;;23.30;38.40;;;;;;1587683;73;729;-64
2022/04/26 12:25:08;;;;;;;;;;;23.40;38.40;;;;;;1579234;74;714;-64
2022/04/26 12:27:13;;;;;;;;;;;23.40;38.40;;;;;;1582529;74;1576;-65
2022/04/26 12:29:15;;;;;;;;;;;23.40;38.40;;;;;;1567563;74;722;-64
2022/04/26 12:31:29;;;;;;;;;;;23.50;38.50;;;;;;1574787;73;1927;-65
2022/04/26 12:33:31;;;;;;;;;;;23.40;38.50;;;;;;1588027;74;1173;-65
2022/04/26 12:35:33;;;;;;;;;;;23.40;38.50;;;;;;1567575;73;784;-64
2022/04/26 12:37:35;;;;;;;;;;;23.40;38.50;;;;;;1588122;74;1133;-64
2022/04/26 12:39:44;;;;;;;;;;;23.40;38.50;;;;;;1589899;74;1425;-65
2022/04/26 12:41:47;;;;;;;;;;;23.40;38.60;;;;;;1588076;74;717;-65
2022/04/26 12:43:51;;;;;;;;;;;23.30;38.60;;;;;;1579776;74;733;-64
2022/04/26 12:46:01;;;;;;;;;;;23.40;38.60;;;;;;1584973;74;1547;-64
2022/04/26 12:50:35;;;;;;;;;;;23.30;38.60;;;;;;1585929;74;1893;-66
2022/04/26 12:52:33;;;;;;;;;;;23.30;38.60;;;;;;1582292;74;875;-64
2022/04/26 12:54:37;;;;;;;;;;;23.30;38.70;;;;;;1586833;73;1477;-66
2022/04/26 12:56:40;;;;;;;;;;;23.30;38.60;;;;;;1573530;73;1124;-66
2022/04/26 12:58:42;;;;;;;;;;;23.50;38.90;;;;;;1586920;73;750;-66
2022/04/26 13:00:45;;;;;;;;;;;23.40;38.80;;;;;;1587291;74;698;-66
2022/04/26 13:02:48;;;;;;;;;;;23.30;38.90;;;;;;1575997;74;727;-62
2022/04/26 13:04:50;;;;;;;;;;;23.30;38.90;;;;;;1573459;74;1617;-66
2022/04/26 13:06:53;;;;;;;;;;;23.50;39.00;;;;;;1580187;74;1133;-66
2022/04/26 13:08:54;;;;;;;;;;;23.40;39.00;;;;;;1578346;74;1435;-66
2022/04/26 13:10:56;;;;;;;;;;;23.40;39.00;;;;;;1584012;74;1975;-67
2022/04/26 13:12:58;;;;;;;;;;;23.50;39.30;;;;;;1567788;74;712;-63
2022/04/26 13:15:00;;;;;;;;;;;23.60;39.50;;;;;;1578726;73;706;-63
2022/04/26 13:17:03;;;;;;;;;;;23.50;39.40;;;;;;1585364;73;1139;-66
2022/04/26 13:19:05;;;;;;;;;;;23.70;39.40;;;;;;1588388;73;693;-64
2022/04/26 13:21:07;;;;;;;;;;;23.70;39.40;;;;;;1578532;74;725;-63
2022/04/26 13:23:08;;;;;;;;;;;23.70;39.40;;;;;;1583694;73;1582;-64
2022/04/26 13:25:10;;;;;;;;;;;23.80;39.40;;;;;;1575960;74;732;-64
2022/04/26 13:27:12;;;;;;;;;;;23.90;39.20;;;;;;1580786;74;1165;-64
2022/04/26 13:29:14;;;;;;;;;;;23.80;39.00;;;;;;1586497;73;733;-67
2022/04/26 13:31:16;;;;;;;;;;;23.80;39.10;;;;;;1580233;74;1940;-67
2022/04/26 13:33:18;;;;;;;;;;;23.70;39.20;;;;;;1585678;74;630;-65
2022/04/26 13:35:20;;;;;;;;;;;23.70;39.20;;;;;;1576827;74;727;-68
2022/04/26 13:37:21;;;;;;;;;;;23.70;39.20;;;;;;1584508;72;3162;-64
2022/04/26 13:39:23;;;;;;;;;;;23.70;39.30;;;;;;1580086;74;732;-63
2022/04/26 13:41:27;;;;;;;;;;;23.60;39.20;;;;;;1572401;74;741;-63
2022/04/26 13:43:29;;;;;;;;;;;23.60;39.30;;;;;;1573394;74;722;-64
2022/04/26 13:45:32;;;;;;;;;;;23.60;39.40;;;;;;1569284;75;752;-64
2022/04/26 13:47:35;;;;;;;;;;;23.60;39.40;;;;;;1573460;74;1190;-63
2022/04/26 13:49:36;;;;;;;;;;;23.60;39.40;;;;;;1570116;74;706;-64
2022/04/26 13:51:38;;;;;;;;;;;23.60;39.40;;;;;;1571359;74;1949;-65
2022/04/26 13:53:40;;;;;;;;;;;23.60;39.40;;;;;;1576485;74;711;-62
2022/04/26 13:55:42;;;;;;;;;;;23.60;39.50;;;;;;1575815;74;697;-65
2022/04/26 13:57:44;;;;;;;;;;;23.50;39.60;;;;;;1574979;74;1130;-63
2022/04/26 13:59:46;;;;;;;;;;;23.50;39.60;;;;;;1574260;74;727;-64
2022/04/26 14:01:48;;;;;;;;;;;23.50;39.60;;;;;;1576101;74;709;-64
2022/04/26 14:03:50;;;;;;;;;;;23.50;39.70;;;;;;1574353;74;1549;-65
2022/04/26 14:05:52;;;;;;;;;;;23.60;39.70;;;;;;1570513;74;722;-63
2022/04/26 14:07:54;;;;;;;;;;;23.50;39.70;;;;;;1575408;74;1249;-63
2022/04/26 14:09:56;;;;;;;;;;;23.50;39.70;;;;;;1573314;74;711;-63
2022/04/26 14:11:58;;;;;;;;;;;23.50;39.70;;;;;;1570933;74;1920;-63
2022/04/26 14:23:19;;;;;;;;;;;23.50;39.80;;;;;;1572172;74;698;-63
2022/04/26 14:25:21;;;;;;;;;;;23.50;39.90;;;;;;1569430;74;728;-64
2022/04/26 14:27:24;;;;;;;;;;;23.50;39.90;;;;;;1573627;73;1116;-64
2022/04/26 14:29:26;;;;;;;;;;;23.50;39.90;;;;;;1570515;74;710;-63
2022/04/26 14:31:28;;;;;;;;;;;23.60;40.00;;;;;;1570909;74;1908;-65
2022/04/26 14:33:32;;;;;;;;;;;23.50;39.90;;;;;;1575891;74;1419;-64
2022/04/26 14:35:33;;;;;;;;;;;23.60;40.00;;;;;;1576430;74;779;-64
2022/04/26 14:37:35;;;;;;;;;;;23.60;40.00;;;;;;1575158;74;1276;-64
2022/04/26 14:39:37;;;;;;;;;;;23.50;40.00;;;;;;1556510;76;514;-63
2022/04/26 14:41:40;;;;;;;;;;;23.50;40.00;;;;;;1554390;75;749;-65
2022/04/26 14:43:41;;;;;;;;;;;23.60;40.00;;;;;;1547967;76;732;-65
2022/04/26 14:45:45;;;;;;;;;;;23.50;40.00;;;;;;1552741;76;745;-67
2022/04/26 14:47:47;;;;;;;;;;;23.60;39.90;;;;;;1556787;75;1682;-66
2022/04/26 14:49:49;;;;;;;;;;;23.60;40.00;;;;;;1560203;75;716;-63
2022/04/26 14:51:51;;;;;;;;;;;23.50;40.10;;;;;;1548688;76;1908;-64
2022/04/26 14:53:53;;;;;;;;;;;23.60;40.10;;;;;;1559304;76;712;-62
2022/04/26 14:55:57;;;;;;;;;;;23.60;40.10;;;;;;1558217;75;705;-63
2022/04/26 14:57:59;;;;;;;;;;;23.60;40.10;;;;;;1559128;75;1640;-64
2022/04/26 15:00:01;;;;;;;;;;;23.70;40.30;;;;;;1558656;76;788;-63
2022/04/26 15:02:02;;;;;;;;;;;23.70;40.40;;;;;;1547527;76;692;-65
2022/04/26 15:04:04;;;;;;;;;;;23.70;40.30;;;;;;1548983;75;730;-63
2022/04/26 15:06:06;;;;;;;;;;;23.70;40.20;;;;;;1553807;75;769;-64
2022/04/26 15:10:29;;;;;;;;;;;23.70;40.30;;;;;;1554902;76;627;-63
2022/04/26 15:17:10;;;;;;;;;;;23.70;40.30;;;;;;1550764;75;1197;-64
2022/04/26 15:19:12;;;;;;;;;;;23.90;40.20;;;;;;1549198;75;727;-63
2022/04/26 15:21:15;;;;;;;;;;;24.00;40.10;;;;;;1548055;76;801;-61
2022/04/26 15:23:17;;;;;;;;;;;23.90;40.20;;;;;;1546706;75;729;-64
2022/04/26 15:25:19;;;;;;;;;;;23.90;40.80;;;;;;1549203;75;719;-62
2022/04/26 15:27:21;;;;;;;;;;;23.90;40.30;;;;;;1546341;75;1164;-61
2022/04/26 15:29:23;;;;;;;;;;;23.90;40.50;;;;;;1550251;76;1509;-64
2022/04/26 15:31:24;;;;;;;;;;;24.00;40.50;;;;;;1552676;76;1946;-62
2022/04/26 15:33:26;;;;;;;;;;;23.90;40.50;;;;;;1547348;75;697;-62
2022/04/26 15:35:28;;;;;;;;;;;24.00;42.00;;;;;;1549555;75;699;-62
2022/04/26 15:37:30;;;;;;;;;;;24.00;40.80;;;;;;1544698;75;1139;-61
2022/04/26 15:39:32;;;;;;;;;;;24.10;40.80;;;;;;1555944;75;703;-64
2022/04/26 15:41:34;;;;;;;;;;;24.10;40.70;;;;;;1570803;75;636;-64
2022/04/26 15:43:36;;;;;;;;;;;24.10;40.70;;;;;;1572499;74;1631;-63
2022/04/26 15:45:38;;;;;;;;;;;24.00;40.50;;;;;;1574597;75;757;-66
2022/04/26 15:47:40;;;;;;;;;;;23.90;40.60;;;;;;1570221;74;1123;-62
2022/04/26 15:49:42;;;;;;;;;;;23.90;40.70;;;;;;1580704;75;717;-64
2022/04/26 15:51:44;;;;;;;;;;;23.80;40.70;;;;;;1580948;74;1937;-63
2022/04/26 15:53:46;;;;;;;;;;;23.80;40.80;;;;;;1569167;75;695;-63
2022/04/26 15:55:48;;;;;;;;;;;23.80;40.80;;;;;;1567244;74;715;-63
2022/04/26 15:57:51;;;;;;;;;;;23.70;41.00;;;;;;1577198;75;1537;-63
2022/04/26 15:59:53;;;;;;;;;;;23.70;41.00;;;;;;1582171;75;687;-64
2022/04/26 16:01:55;;;;;;;;;;;23.70;41.00;;;;;;1589119;74;747;-63
2022/04/26 16:03:57;;;;;;;;;;;23.70;41.10;;;;;;1582070;75;706;-63
2022/04/26 16:05:59;;;;;;;;;;;23.70;41.10;;;;;;1579667;74;695;-63
2022/04/26 16:08:00;;;;;;;;;;;23.60;41.10;;;;;;1571886;75;1087;-63
2022/04/26 16:21:41;;;;;;;;;;;23.60;41.40;;;;;;1581820;74;726;-64
2022/04/26 16:23:44;;;;;;;;;;;23.60;41.30;;;;;;1581810;75;777;-67
2022/04/26 16:25:46;;;;;;;;;;;23.60;41.30;;;;;;1566743;74;1567;-63
2022/04/26 16:27:49;;;;;;;;;;;23.60;41.30;;;;;;1563933;75;1171;-63
2022/04/26 16:29:50;;;;;;;;;;;23.60;41.50;;;;;;1575330;75;769;-64
2022/04/26 16:31:52;;;;;;;;;;;23.50;41.40;;;;;;1578989;74;1933;-64
2022/04/26 16:33:59;;;;;;;;;;;23.60;41.40;;;;;;1572203;75;562;-64
2022/04/26 16:36:01;;;;;;;;;;;23.60;41.50;;;;;;1574725;75;902;-63
2022/04/26 16:38:02;;;;;;;;;;;23.60;41.50;;;;;;1570387;74;1079;-64
2022/04/26 16:40:04;;;;;;;;;;;23.50;41.50;;;;;;1580599;73;1650;-64
2022/04/26 16:42:06;;;;;;;;;;;23.50;41.50;;;;;;1581181;73;716;-64